createdAt,value
2023-05-10T00:02:26.566Z,14.50
2023-05-10T00:04:55.907Z,14.40
2023-05-10T00:07:22.757Z,14.40
2023-05-10T00:09:49.634Z,14.40
2023-05-10T00:12:17.656Z,14.40
2023-05-10T00:14:44.594Z,14.40
2023-05-10T00:17:11.488Z,14.40
2023-05-10T00:19:40.620Z,14.40
2023-05-10T00:22:11.845Z,14.30
2023-05-10T00:24:40.844Z,14.30
2023-05-10T00:27:07.894Z,14.30
2023-05-10T00:29:34.876Z,14.30
2023-05-10T00:32:01.844Z,14.30
2023-05-10T00:34:29.249Z,14.20
2023-05-10T00:36:58.703Z,14.20
2023-05-10T00:39:25.592Z,14.20
2023-05-10T00:41:54.920Z,14.20
2023-05-10T00:44:22.151Z,14.20
2023-05-10T00:46:50.168Z,14.20
2023-05-10T00:49:17.878Z,14.10
2023-05-10T00:51:45.646Z,14.10
2023-05-10T00:54:18.869Z,14.10
2023-05-10T00:56:50.991Z,14.10
2023-05-10T00:59:18.871Z,14.00
2023-05-10T01:01:48.947Z,14.00
2023-05-10T01:04:18.389Z,14.00
2023-05-10T01:06:45.230Z,14.00
2023-05-10T01:09:12.889Z,13.90
2023-05-10T01:11:40.888Z,13.90
2023-05-10T01:14:08.545Z,13.90
2023-05-10T01:16:42.574Z,13.80
2023-05-10T01:19:18.549Z,13.80
2023-05-10T01:22:12.697Z,13.70
2023-05-10T01:25:03.494Z,13.80
2023-05-10T01:27:50.607Z,13.80
2023-05-10T01:30:28.188Z,13.80
2023-05-10T01:33:26.840Z,13.70
2023-05-10T01:35:54.444Z,13.70
2023-05-10T01:38:47.129Z,13.70
2023-05-10T01:41:28.864Z,13.70
2023-05-10T01:43:58.495Z,13.70
2023-05-10T01:46:32.399Z,13.60
2023-05-10T01:49:03.185Z,13.60
2023-05-10T01:51:38.004Z,13.50
2023-05-10T01:54:06.884Z,13.50
2023-05-10T01:56:38.726Z,13.50
2023-05-10T01:59:13.293Z,13.50
2023-05-10T02:01:41.570Z,13.50
2023-05-10T02:04:10.585Z,13.50
2023-05-10T02:06:42.247Z,13.40
2023-05-10T02:09:11.640Z,13.40
2023-05-10T02:11:44.661Z,13.40
2023-05-10T02:14:15.043Z,13.50
2023-05-10T02:16:43.186Z,13.40
2023-05-10T02:19:15.173Z,13.40
2023-05-10T02:21:43.759Z,13.40
2023-05-10T02:24:12.412Z,13.30
2023-05-10T02:26:39.960Z,13.30
2023-05-10T02:29:08.437Z,13.30
2023-05-10T02:31:36.432Z,13.20
2023-05-10T02:34:09.001Z,13.30
2023-05-10T02:36:36.520Z,13.20
2023-05-10T02:39:10.413Z,13.20
2023-05-10T02:41:38.168Z,13.10
2023-05-10T02:44:10.621Z,13.10
2023-05-10T02:46:38.615Z,13.10
2023-05-10T02:49:05.526Z,13.10
2023-05-10T02:51:35.804Z,13.10
2023-05-10T02:54:10.105Z,13.00
2023-05-10T02:56:40.899Z,13.00
2023-05-10T02:59:07.782Z,13.00
2023-05-10T03:01:34.880Z,13.00
2023-05-10T03:04:01.886Z,12.90
2023-05-10T03:06:29.612Z,12.90
2023-05-10T03:08:57.403Z,12.90
2023-05-10T03:11:41.055Z,12.80
2023-05-10T03:14:32.789Z,12.80
2023-05-10T03:17:26.807Z,12.80
2023-05-10T03:19:59.373Z,12.80
2023-05-10T03:22:40.820Z,12.80
2023-05-10T03:25:11.740Z,12.80
2023-05-10T03:27:44.826Z,12.70
2023-05-10T03:30:13.717Z,12.70
2023-05-10T03:32:40.618Z,12.70
2023-05-10T03:35:11.430Z,12.70
2023-05-10T03:37:38.499Z,12.70
2023-05-10T03:40:06.343Z,12.70
2023-05-10T03:42:37.654Z,12.70
2023-05-10T03:45:07.227Z,12.70
2023-05-10T03:47:34.163Z,12.70
2023-05-10T03:50:03.400Z,12.60
2023-05-10T03:52:30.515Z,12.60
2023-05-10T03:55:03.844Z,12.60
2023-05-10T03:57:30.622Z,12.60
2023-05-10T03:59:57.349Z,12.60
2023-05-10T04:02:24.238Z,12.60
2023-05-10T04:04:51.227Z,12.60
2023-05-10T04:07:19.041Z,12.50
2023-05-10T04:09:45.982Z,12.50
2023-05-10T04:12:15.264Z,12.50
2023-05-10T04:14:42.026Z,12.50
2023-05-10T04:17:11.456Z,12.50
2023-05-10T04:19:40.763Z,12.50
2023-05-10T04:22:07.558Z,12.50
2023-05-10T04:24:34.282Z,12.50
2023-05-10T04:27:03.377Z,12.50
2023-05-10T04:29:32.645Z,12.50
2023-05-10T04:31:59.697Z,12.50
2023-05-10T04:34:41.579Z,12.60
2023-05-10T04:37:13.198Z,12.60
2023-05-10T04:39:42.182Z,12.60
2023-05-10T04:42:09.328Z,12.60
2023-05-10T04:44:36.353Z,12.50
2023-05-10T04:47:03.866Z,12.50
2023-05-10T04:49:30.753Z,12.50
2023-05-10T04:51:57.495Z,12.50
2023-05-10T04:54:24.370Z,12.50
2023-05-10T04:56:51.155Z,12.60
2023-05-10T04:59:19.979Z,12.60
2023-05-10T05:01:46.855Z,12.60
2023-05-10T05:04:13.652Z,12.60
2023-05-10T05:06:42.837Z,12.60
2023-05-10T05:09:11.137Z,12.70
2023-05-10T05:11:44.129Z,12.70
2023-05-10T05:14:11.005Z,12.70
2023-05-10T05:16:38.391Z,12.80
2023-05-10T05:19:05.215Z,12.90
2023-05-10T05:21:33.152Z,12.90
2023-05-10T05:24:00.086Z,12.90
2023-05-10T05:26:27.808Z,13.00
2023-05-10T05:28:55.588Z,13.00
2023-05-10T05:31:22.622Z,13.00
2023-05-10T05:34:55.362Z,13.00
2023-05-10T05:37:25.380Z,13.00
2023-05-10T05:39:52.437Z,13.00
2023-05-10T05:42:19.939Z,13.10
2023-05-10T05:44:46.925Z,13.10
2023-05-10T05:47:14.195Z,13.10
2023-05-10T05:49:46.821Z,13.20
2023-05-10T05:52:13.835Z,13.20
2023-05-10T05:54:40.709Z,13.20
2023-05-10T05:57:08.434Z,13.30
2023-05-10T05:59:35.426Z,13.30
2023-05-10T06:02:02.445Z,13.40
2023-05-10T06:04:34.155Z,13.40
2023-05-10T06:07:01.116Z,13.50
2023-05-10T06:09:30.278Z,13.50
2023-05-10T06:11:57.382Z,13.60
2023-05-10T06:14:26.437Z,13.60
2023-05-10T06:16:55.724Z,13.70
2023-05-10T06:19:22.934Z,13.80
2023-05-10T06:21:51.195Z,13.80
2023-05-10T06:24:22.472Z,13.80
2023-05-10T06:26:50.934Z,13.90
2023-05-10T06:29:17.780Z,14.00
2023-05-10T06:31:44.753Z,14.00
2023-05-10T06:34:12.655Z,14.10
2023-05-10T06:36:42.125Z,14.20
2023-05-10T06:39:09.140Z,14.30
2023-05-10T06:41:38.515Z,14.40
2023-05-10T06:44:06.025Z,14.40
2023-05-10T06:46:35.469Z,14.50
2023-05-10T06:49:02.400Z,14.60
2023-05-10T06:51:29.266Z,14.60
2023-05-10T06:53:56.269Z,14.60
2023-05-10T06:56:28.054Z,14.60
2023-05-10T06:58:55.051Z,14.70
2023-05-10T07:01:21.950Z,14.70
2023-05-10T07:03:48.949Z,14.80
2023-05-10T07:06:29.485Z,14.80
2023-05-10T07:09:00.327Z,14.90
2023-05-10T07:11:28.069Z,15.00
2023-05-10T07:13:55.016Z,15.00
2023-05-10T07:16:23.124Z,15.10
2023-05-10T07:18:53.979Z,15.10
2023-05-10T07:21:21.081Z,15.20
2023-05-10T07:23:48.169Z,15.30
2023-05-10T07:26:20.783Z,15.30
2023-05-10T07:28:48.318Z,15.40
2023-05-10T07:31:15.157Z,15.50
2023-05-10T07:33:42.087Z,15.50
2023-05-10T07:36:08.988Z,15.70
2023-05-10T07:38:35.819Z,15.70
2023-05-10T07:41:02.982Z,15.80
2023-05-10T07:43:29.832Z,15.90
2023-05-10T07:45:58.560Z,15.90
2023-05-10T07:48:25.755Z,16.00
2023-05-10T07:50:52.768Z,16.10
2023-05-10T07:53:22.209Z,16.20
2023-05-10T07:55:55.455Z,16.30
2023-05-10T07:58:22.558Z,16.30
2023-05-10T08:00:50.199Z,16.40
2023-05-10T08:03:17.295Z,16.50
2023-05-10T08:05:44.374Z,16.60
2023-05-10T08:08:11.232Z,16.70
2023-05-10T08:10:40.318Z,16.80
2023-05-10T08:13:07.172Z,16.90
2023-05-10T08:15:34.107Z,16.90
2023-05-10T08:18:00.999Z,17.10
2023-05-10T08:20:28.025Z,17.20
2023-05-10T08:22:54.970Z,17.40
2023-05-10T08:25:21.807Z,17.70
2023-05-10T08:27:53.703Z,18.00
2023-05-10T08:30:20.788Z,18.40
2023-05-10T08:32:47.690Z,18.80
2023-05-10T08:35:16.945Z,19.40
2023-05-10T08:37:43.925Z,20.40
2023-05-10T08:40:13.111Z,21.70
2023-05-10T08:42:44.130Z,22.40
2023-05-10T08:45:12.505Z,22.90
2023-05-10T08:47:40.666Z,23.20
2023-05-10T08:50:08.453Z,23.70
2023-05-10T08:52:40.880Z,23.90
2023-05-10T08:55:12.906Z,24.20
2023-05-10T08:57:45.158Z,24.20
2023-05-10T09:00:15.078Z,24.30
2023-05-10T09:02:44.057Z,24.50
2023-05-10T09:05:11.579Z,24.70
2023-05-10T09:07:38.601Z,24.80
2023-05-10T09:10:09.757Z,25.10
2023-05-10T09:12:36.846Z,25.50
2023-05-10T09:15:08.120Z,25.80
2023-05-10T09:17:35.502Z,25.50
2023-05-10T09:20:08.358Z,25.80
2023-05-10T09:22:36.066Z,25.90
2023-05-10T09:25:09.550Z,26.10
2023-05-10T09:27:37.738Z,26.40
2023-05-10T09:30:10.510Z,26.40
2023-05-10T09:32:41.719Z,26.40
2023-05-10T09:35:11.921Z,26.50
2023-05-10T09:37:49.782Z,26.60
2023-05-10T09:40:21.871Z,27.10
2023-05-10T09:42:56.837Z,27.30
2023-05-10T09:45:25.987Z,27.10
2023-05-10T09:47:54.029Z,26.70
2023-05-10T09:50:22.062Z,26.50
2023-05-10T09:52:53.322Z,26.50
2023-05-10T09:55:24.230Z,26.10
2023-05-10T09:58:00.282Z,25.60
2023-05-10T10:00:28.192Z,24.90
2023-05-10T10:02:59.999Z,24.30
2023-05-10T10:05:31.149Z,23.60
2023-05-10T10:07:59.439Z,23.20
2023-05-10T10:10:32.470Z,23.50
2023-05-10T10:12:59.542Z,23.90
2023-05-10T10:15:26.852Z,23.60
2023-05-10T10:17:54.383Z,23.00
2023-05-10T10:20:23.365Z,22.90
2023-05-10T10:22:52.684Z,23.20
2023-05-10T10:25:22.879Z,23.20
2023-05-10T10:27:57.624Z,23.00
2023-05-10T10:30:39.656Z,22.80
2023-05-10T10:33:24.281Z,22.60
2023-05-10T10:35:56.207Z,22.30
2023-05-10T10:38:23.806Z,22.30
2023-05-10T10:41:27.835Z,22.00
2023-05-10T10:44:13.272Z,22.00
2023-05-10T10:47:02.400Z,22.00
2023-05-10T10:49:38.906Z,22.20
2023-05-10T10:52:30.937Z,22.80
2023-05-10T10:55:15.757Z,22.90
2023-05-10T10:57:52.744Z,22.70
2023-05-10T11:00:30.169Z,22.50
2023-05-10T11:02:58.214Z,22.30
2023-05-10T11:05:36.191Z,22.30
2023-05-10T11:08:19.815Z,22.20
2023-05-10T11:11:03.135Z,22.20
2023-05-10T11:13:44.560Z,22.00
2023-05-10T11:16:20.930Z,22.00
2023-05-10T11:19:12.418Z,22.00
2023-05-10T11:22:05.752Z,22.00
2023-05-10T11:24:32.767Z,21.90
2023-05-10T11:27:03.289Z,21.80
2023-05-10T11:29:32.613Z,21.90
2023-05-10T11:32:00.627Z,22.00
2023-05-10T11:34:30.454Z,22.50
2023-05-10T11:37:05.214Z,22.50
2023-05-10T11:39:34.668Z,22.60
2023-05-10T11:42:03.904Z,22.60
2023-05-10T11:44:32.670Z,22.50
2023-05-10T11:47:04.029Z,22.50
2023-05-10T11:49:31.203Z,22.50
2023-05-10T11:52:08.196Z,22.50
2023-05-10T11:54:36.057Z,22.60
2023-05-10T11:57:03.262Z,22.60
2023-05-10T11:59:32.916Z,22.80
2023-05-10T12:02:00.217Z,22.70
2023-05-10T12:04:28.786Z,22.60
2023-05-10T12:06:55.911Z,22.60
2023-05-10T12:09:39.570Z,22.60
2023-05-10T12:12:10.817Z,22.60
2023-05-10T12:14:39.981Z,22.60
2023-05-10T12:17:06.926Z,22.60
2023-05-10T12:19:40.640Z,22.80
2023-05-10T12:22:09.796Z,22.80
2023-05-10T12:24:39.215Z,22.80
2023-05-10T12:27:09.216Z,23.00
2023-05-10T12:29:36.665Z,23.00
2023-05-10T12:32:05.981Z,22.90
2023-05-10T12:34:39.981Z,22.80
2023-05-10T12:37:07.127Z,22.90
2023-05-10T12:39:45.367Z,22.90
2023-05-10T12:42:12.749Z,22.90
2023-05-10T12:44:40.765Z,23.00
2023-05-10T12:47:10.045Z,23.10
2023-05-10T12:49:37.130Z,23.20
2023-05-10T12:52:06.303Z,23.30
2023-05-10T12:54:35.415Z,23.40
2023-05-10T12:57:04.460Z,23.40
2023-05-10T12:59:31.452Z,23.40
2023-05-10T13:02:00.788Z,23.40
2023-05-10T13:04:30.074Z,23.30
2023-05-10T13:06:59.656Z,23.20
2023-05-10T13:09:28.002Z,23.10
2023-05-10T13:11:55.324Z,23.10
2023-05-10T13:14:25.010Z,23.10
2023-05-10T13:16:52.145Z,23.10
2023-05-10T13:19:23.731Z,23.10
2023-05-10T13:21:50.844Z,23.20
2023-05-10T13:24:20.791Z,23.10
2023-05-10T13:26:47.676Z,23.10
2023-05-10T13:29:14.599Z,23.10
2023-05-10T13:31:46.245Z,23.10
2023-05-10T13:34:13.259Z,23.10
2023-05-10T13:36:40.314Z,23.10
2023-05-10T13:39:09.965Z,23.00
2023-05-10T13:41:37.702Z,23.10
2023-05-10T13:44:04.636Z,23.10
2023-05-10T13:46:32.028Z,23.10
2023-05-10T13:49:01.260Z,23.60
2023-05-10T13:51:28.354Z,24.50
2023-05-10T13:53:55.225Z,25.60
2023-05-10T13:56:26.713Z,27.10
2023-05-10T13:58:57.920Z,28.00
2023-05-10T14:01:25.185Z,28.50
2023-05-10T14:03:52.519Z,29.60
2023-05-10T14:06:19.597Z,29.20
2023-05-10T14:08:48.750Z,28.10
2023-05-10T14:11:16.253Z,27.90
2023-05-10T14:13:46.213Z,27.60
2023-05-10T14:16:16.003Z,30.90
2023-05-10T14:18:43.045Z,30.60
2023-05-10T14:21:12.202Z,31.30
2023-05-10T14:23:41.881Z,33.00
2023-05-10T14:26:10.812Z,32.10
2023-05-10T14:28:37.712Z,30.40
2023-05-10T14:31:04.680Z,29.30
2023-05-10T14:33:31.500Z,30.80
2023-05-10T14:35:58.437Z,31.20
2023-05-10T14:38:25.272Z,31.40
2023-05-10T14:40:52.265Z,30.50
2023-05-10T14:43:19.363Z,29.50
2023-05-10T14:45:46.559Z,28.00
2023-05-10T14:48:16.434Z,27.70
2023-05-10T14:50:43.426Z,26.90
2023-05-10T14:53:13.484Z,26.10
2023-05-10T14:55:40.492Z,25.70
2023-05-10T14:58:07.381Z,25.80
2023-05-10T15:00:38.984Z,25.30
2023-05-10T15:03:09.115Z,25.20
2023-05-10T15:05:38.240Z,24.60
2023-05-10T15:08:07.375Z,24.30
2023-05-10T15:10:34.627Z,23.90
2023-05-10T15:13:06.528Z,23.70
2023-05-10T15:15:35.675Z,23.60
2023-05-10T15:18:02.592Z,23.70
2023-05-10T15:20:29.445Z,23.70
2023-05-10T15:22:56.342Z,23.60
2023-05-10T15:25:24.636Z,23.80
2023-05-10T15:27:51.557Z,24.00
2023-05-10T15:30:18.395Z,24.10
2023-05-10T15:32:45.304Z,23.80
2023-05-10T15:35:12.258Z,23.60
2023-05-10T15:37:41.930Z,23.50
2023-05-10T15:40:09.250Z,23.50
2023-05-10T15:42:36.314Z,23.40
2023-05-10T15:45:03.294Z,23.40
2023-05-10T15:47:33.830Z,23.30
2023-05-10T15:50:01.093Z,23.30
2023-05-10T15:52:28.280Z,23.10
2023-05-10T15:54:55.287Z,23.00
2023-05-10T15:57:22.161Z,23.00
2023-05-10T15:59:49.289Z,23.00
2023-05-10T16:02:19.346Z,23.00
2023-05-10T16:04:49.212Z,23.00
2023-05-10T16:07:18.911Z,22.90
2023-05-10T16:09:45.882Z,23.00
2023-05-10T16:12:12.877Z,22.90
2023-05-10T16:14:39.704Z,22.90
2023-05-10T16:17:07.806Z,22.80
2023-05-10T16:19:34.845Z,22.80
2023-05-10T16:22:04.133Z,22.70
2023-05-10T16:24:31.063Z,22.70
2023-05-10T16:26:58.040Z,22.60
2023-05-10T16:29:24.956Z,22.60
2023-05-10T16:31:51.777Z,22.50
2023-05-10T16:34:24.164Z,22.40
2023-05-10T16:36:51.678Z,22.30
2023-05-10T16:39:20.781Z,22.20
2023-05-10T16:41:47.772Z,22.10
2023-05-10T16:44:20.119Z,22.00
2023-05-10T16:46:47.872Z,21.90
2023-05-10T16:49:17.511Z,21.80
2023-05-10T16:51:44.359Z,21.70
2023-05-10T16:54:14.202Z,21.70
2023-05-10T16:56:41.377Z,21.70
2023-05-10T16:59:08.528Z,21.60
2023-05-10T17:01:35.673Z,21.60
2023-05-10T17:04:03.575Z,21.60
2023-05-10T17:06:30.482Z,21.60
2023-05-10T17:08:57.286Z,21.60
2023-05-10T17:11:26.327Z,21.60
2023-05-10T17:13:56.231Z,21.50
2023-05-10T17:16:23.377Z,21.50
2023-05-10T17:18:50.363Z,21.40
2023-05-10T17:21:19.876Z,21.40
2023-05-10T17:23:46.818Z,21.30
2023-05-10T17:26:13.586Z,21.30
2023-05-10T17:28:40.630Z,21.20
2023-05-10T17:31:09.785Z,21.10
2023-05-10T17:33:36.697Z,21.10
2023-05-10T17:36:03.780Z,21.00
2023-05-10T17:38:33.124Z,21.00
2023-05-10T17:40:59.909Z,20.90
2023-05-10T17:43:29.713Z,20.80
2023-05-10T17:45:56.559Z,20.80
2023-05-10T17:48:23.520Z,20.70
2023-05-10T17:50:52.682Z,20.70
2023-05-10T17:53:19.584Z,20.60
2023-05-10T17:55:47.015Z,20.60
2023-05-10T17:58:14.032Z,20.60
2023-05-10T18:00:40.986Z,20.60
2023-05-10T18:03:08.080Z,20.60
2023-05-10T18:05:41.092Z,20.60
2023-05-10T18:08:08.327Z,20.50
2023-05-10T18:10:36.061Z,20.50
2023-05-10T18:13:05.904Z,20.50
2023-05-10T18:15:35.202Z,20.50
2023-05-10T18:18:04.072Z,20.40
2023-05-10T18:20:31.821Z,20.30
2023-05-10T18:22:59.119Z,20.30
2023-05-10T18:25:28.669Z,20.20
2023-05-10T18:27:55.848Z,20.20
2023-05-10T18:30:22.854Z,20.20
2023-05-10T18:32:51.946Z,20.20
2023-05-10T18:35:19.230Z,20.10
2023-05-10T18:37:46.469Z,20.10
2023-05-10T18:40:14.670Z,20.00
2023-05-10T18:42:42.024Z,19.90
2023-05-10T18:45:09.254Z,19.90
2023-05-10T18:47:36.180Z,19.90
2023-05-10T18:50:05.136Z,19.90
2023-05-10T18:52:32.121Z,19.80
2023-05-10T18:54:59.093Z,19.80
2023-05-10T18:57:26.021Z,19.70
2023-05-10T18:59:52.890Z,19.70
2023-05-10T19:02:19.799Z,19.60
2023-05-10T19:04:46.814Z,19.60
2023-05-10T19:07:16.009Z,19.60
2023-05-10T19:09:45.533Z,19.50
2023-05-10T19:12:12.543Z,19.50
2023-05-10T19:14:39.434Z,19.50
2023-05-10T19:17:09.629Z,19.40
2023-05-10T19:19:39.853Z,19.40
2023-05-10T19:22:08.871Z,19.40
2023-05-10T19:24:35.717Z,19.30
2023-05-10T19:27:02.862Z,19.30
2023-05-10T19:29:29.789Z,19.30
2023-05-10T19:31:56.875Z,19.30
2023-05-10T19:34:23.950Z,19.30
2023-05-10T19:36:51.114Z,19.20
2023-05-10T19:39:20.197Z,19.20
2023-05-10T19:41:47.705Z,19.10
2023-05-10T19:44:14.926Z,19.10
2023-05-10T19:46:41.846Z,19.10
2023-05-10T19:49:11.208Z,19.10
2023-05-10T19:51:40.056Z,19.00
2023-05-10T19:54:07.154Z,19.00
2023-05-10T19:56:34.673Z,18.90
2023-05-10T19:59:03.341Z,18.90
2023-05-10T20:01:33.178Z,18.90
2023-05-10T20:04:02.549Z,18.80
2023-05-10T20:06:29.485Z,18.80
2023-05-10T20:08:58.589Z,18.80
2023-05-10T20:11:25.634Z,18.80
2023-05-10T20:13:54.751Z,18.80
2023-05-10T20:16:26.472Z,18.70
2023-05-10T20:18:54.514Z,18.70
2023-05-10T20:21:23.939Z,18.70
2023-05-10T20:23:50.923Z,18.70
2023-05-10T20:26:17.829Z,18.60
2023-05-10T20:28:44.705Z,18.60
2023-05-10T20:31:14.124Z,18.50
2023-05-10T20:33:41.067Z,18.50
2023-05-10T20:36:09.588Z,18.50
2023-05-10T20:38:36.883Z,18.40
2023-05-10T20:41:05.907Z,18.40
2023-05-10T20:43:33.057Z,18.30
2023-05-10T20:46:05.201Z,18.30
2023-05-10T20:48:34.582Z,18.30
2023-05-10T20:51:04.029Z,18.20
2023-05-10T20:53:30.995Z,18.10
2023-05-10T20:55:57.961Z,18.10
2023-05-10T20:58:24.974Z,18.10
2023-05-10T21:00:51.827Z,18.10
2023-05-10T21:03:18.709Z,18.10
2023-05-10T21:05:47.786Z,18.10
2023-05-10T21:08:19.029Z,18.00
2023-05-10T21:10:45.968Z,17.90
2023-05-10T21:13:15.419Z,17.90
2023-05-10T21:15:42.190Z,17.90
2023-05-10T21:18:11.297Z,17.80
2023-05-10T21:20:38.145Z,17.80
2023-05-10T21:23:07.214Z,17.80
2023-05-10T21:25:34.476Z,17.80
2023-05-10T21:28:01.381Z,17.80
2023-05-10T21:30:28.341Z,17.80
2023-05-10T21:32:59.461Z,17.80
2023-05-10T21:35:30.105Z,17.90
2023-05-10T21:37:57.327Z,17.90
2023-05-10T21:40:26.729Z,17.90
2023-05-10T21:42:55.713Z,17.90
2023-05-10T21:45:25.037Z,17.80
2023-05-10T21:47:52.039Z,17.80
2023-05-10T21:50:19.060Z,17.70
2023-05-10T21:52:46.106Z,17.70
2023-05-10T21:55:12.948Z,17.70
2023-05-10T21:57:41.162Z,17.70
2023-05-10T22:00:10.141Z,17.70
2023-05-10T22:02:38.686Z,17.70
2023-05-10T22:05:06.225Z,17.60
2023-05-10T22:07:33.759Z,17.60
2023-05-10T22:10:03.203Z,17.60
2023-05-10T22:12:30.067Z,17.60
2023-05-10T22:15:09.522Z,17.60
2023-05-10T22:17:40.821Z,17.60
2023-05-10T22:20:10.207Z,17.50
2023-05-10T22:22:39.104Z,17.50
2023-05-10T22:25:07.499Z,17.40
2023-05-10T22:27:37.280Z,17.40
2023-05-10T22:30:04.675Z,17.40
2023-05-10T22:32:34.169Z,17.40
2023-05-10T22:35:03.285Z,17.30
2023-05-10T22:37:30.594Z,17.30
2023-05-10T22:39:57.498Z,17.30
2023-05-10T22:42:29.058Z,17.30
2023-05-10T22:44:56.536Z,17.40
2023-05-10T22:47:23.393Z,17.40
2023-05-10T22:49:50.259Z,17.40
2023-05-10T22:52:17.039Z,17.40
2023-05-10T22:54:44.265Z,17.50
2023-05-10T22:57:16.233Z,17.50
2023-05-10T22:59:43.305Z,17.50
2023-05-10T23:02:10.499Z,17.50
2023-05-10T23:04:39.546Z,17.40
2023-05-10T23:07:08.836Z,17.40
2023-05-10T23:09:40.572Z,17.40
2023-05-10T23:12:07.495Z,17.40
2023-05-10T23:14:38.077Z,17.40
2023-05-10T23:17:07.706Z,17.40
2023-05-10T23:19:34.539Z,17.30
2023-05-10T23:22:01.354Z,17.30
2023-05-10T23:24:28.212Z,17.30
2023-05-10T23:26:57.096Z,17.30
2023-05-10T23:29:26.725Z,17.20
2023-05-10T23:31:53.610Z,17.20
2023-05-10T23:34:22.753Z,17.10
2023-05-10T23:36:49.595Z,17.10
2023-05-10T23:39:16.584Z,17.00
2023-05-10T23:41:43.428Z,17.00
2023-05-10T23:44:12.541Z,16.90
2023-05-10T23:46:39.438Z,16.90
2023-05-10T23:49:08.750Z,16.90
2023-05-10T23:51:37.760Z,16.80
2023-05-10T23:54:04.554Z,16.80
2023-05-10T23:56:31.363Z,16.80
2023-05-10T23:58:58.238Z,16.80
